Aeroporto :
LOGIN :

Iscrizione | Disclaimer

   EN    FR    IT 

 










Sommario :    VFR   VFR Marginale   IFR   IFR Intensivo   IFR Molto Intensivo
Visibilità : 
Base nubi : 
>= 8 km
>= 3000ft
5 / 8 km
1000 / 3000 ft
1500m / 5 km
500 / 1000 ft
800 / 1500m
200 / 500 ft
< 800m
< 200 ft
Simboli :   Temporali  Nebbia  Neve Forte  Precipitazioni Forti  Vento > 20 kt
SIGMETs :   Varie  Temporali  Ghiacco  Turbolenza  Onda orograficha  Ceneri Vulcaniche






- Altitudine del aeroporto : 686 ft


LYKV - Ladevci

ULTIMO METAR :
  • 170030Z 00000KT CAVOK M02/M02 Q1028 NOSIG

METARs OBSOLETI :
  • 170000Z VRB01KT CAVOK M02/M02 Q1028 NOSIG
  • 162330Z VRB02KT CAVOK M00/M00 Q1028 NOSIG
  • 162300Z VRB02KT CAVOK M01/M01 Q1028 NOSIG
  • 162230Z VRB02KT CAVOK M01/M01 Q1028 NOSIG
  • 162200Z VRB02KT CAVOK M02/M02 Q1028 NOSIG

TAF TAF LYKV
Valido dal 17 a 00 ore il 18 a 00 ore UTC


162300Z 1700/1724 VRB02KT CAVOK TX13/1713Z TNM04/1706Z
BECMG 1701/1703 2000 BR
TEMPO 1704/1707 0600 FZFG
BECMG 1708/1710 CAVOK



MetMap, La meteo Aeronautica in un colpo d'occhio ! - Copyright ORBIFLY Dicembre 2007 - Disclaimer

ORBIFLY MET'MAP TEAM :

Programmazione e sviluppo : Alexandra Zaïnal
Concezione : Baudouin d'Aumeries
Aiuto per la programmazione : Marc-Olivier Méhu
Supporto tecnico e logistico : Manuel Goepfert
Aiuto per la traduzione : Arnaldo La Scala

Contatto : metmap@orbifly.com




FONTI E CREDITI :

   NOAA